Time;durP1;ratioP1;P1;durP2;ratioP2;P2;SDS_P1;SDS_P2;PMS_P1;PMS_P2;Temp;Humidity;BMP_temperature;BMP_pressure;BME280_temperature;BME280_humidity;BME280_pressure;Samples;Min_cycle;Max_cycle;Signal;HPM_P1;HPM_P2
2024/01/16 00:01:24;;;;;;;12.93;12.23;;;-0.20;99.90;;;;;;5046395;28;20040;-78
2024/01/16 00:03:50;;;;;;;12.85;11.90;;;-0.60;99.90;;;;;;5012731;28;20037;-77
2024/01/16 00:06:15;;;;;;;14.07;13.18;;;-0.70;99.90;;;;;;5046845;28;20053;-79
2024/01/16 00:08:41;;;;;;;11.75;11.10;;;-0.60;99.90;;;;;;5012785;28;20075;-78
2024/01/16 00:11:07;;;;;;;12.73;11.90;;;-0.10;99.90;;;;;;5013647;28;20045;-79
2024/01/16 00:13:33;;;;;;;11.75;11.25;;;-0.90;99.90;;;;;;5029383;28;20073;-78
2024/01/16 00:15:59;;;;;;;11.77;11.27;;;-0.90;99.90;;;;;;4993386;28;20062;-78
2024/01/16 00:18:24;;;;;;;11.88;11.20;;;-0.90;99.90;;;;;;5026445;28;20046;-77
2024/01/16 00:20:50;;;;;;;12.68;12.00;;;-1.00;99.90;;;;;;5025070;28;20045;-76
2024/01/16 00:23:16;;;;;;;12.32;11.57;;;-0.70;99.90;;;;;;5010550;28;20084;-78
2024/01/16 00:25:41;;;;;;;11.98;11.27;;;-1.00;99.90;;;;;;5025397;28;20042;-78
2024/01/16 00:28:07;;;;;;;11.50;10.60;;;-0.90;99.90;;;;;;5010379;28;20128;-77
2024/01/16 00:30:33;;;;;;;11.93;11.10;;;-0.50;99.90;;;;;;5027764;28;20065;-76
2024/01/16 00:32:59;;;;;;;12.32;11.43;;;-1.00;99.90;;;;;;5045756;28;20049;-78
2024/01/16 00:35:25;;;;;;;10.88;9.95;;;-0.80;99.90;;;;;;5013294;28;20041;-77
2024/01/16 00:37:51;;;;;;;10.13;9.73;;;-1.00;99.90;;;;;;4996046;28;20041;-77
2024/01/16 00:40:16;;;;;;;12.55;11.35;;;-1.00;99.90;;;;;;5046154;28;20037;-77
2024/01/16 00:42:42;;;;;;;9.68;9.00;;;-1.00;99.90;;;;;;5044573;28;20075;-77
2024/01/16 00:45:08;;;;;;;9.32;8.82;;;-0.80;99.90;;;;;;5013364;28;20079;-78
2024/01/16 00:47:34;;;;;;;9.77;9.07;;;-0.50;99.90;;;;;;5045166;28;20071;-78
2024/01/16 00:50:01;;;;;;;14.90;8.88;;;-1.00;99.90;;;;;;5012552;28;20108;-78
2024/01/16 00:52:27;;;;;;;9.90;9.30;;;-0.70;99.90;;;;;;4996932;28;20052;-79
2024/01/16 00:54:52;;;;;;;10.55;9.93;;;-1.10;99.90;;;;;;5044800;28;20073;-77
2024/01/16 00:57:19;;;;;;;10.45;9.85;;;-1.10;99.90;;;;;;5063349;28;20064;-77
2024/01/16 00:59:46;;;;;;;10.52;9.73;;;-1.10;99.90;;;;;;4995594;28;20045;-77
2024/01/16 01:02:12;;;;;;;12.10;11.50;;;-1.10;99.90;;;;;;5029146;28;20044;-77
2024/01/16 01:04:38;;;;;;;10.30;9.80;;;-1.10;99.90;;;;;;5028619;28;20060;-76
2024/01/16 01:07:04;;;;;;;9.45;8.70;;;-1.20;99.90;;;;;;5028386;28;20040;-77
2024/01/16 01:09:32;;;;;;;9.48;9.07;;;-1.20;99.90;;;;;;5012772;28;20049;-77
2024/01/16 01:11:57;;;;;;;10.00;9.55;;;-1.30;99.90;;;;;;5024715;28;20186;-77
2024/01/16 01:14:25;;;;;;;10.10;9.13;;;-1.20;99.90;;;;;;4993048;28;20046;-77
2024/01/16 01:16:51;;;;;;;9.18;8.68;;;-1.20;99.90;;;;;;4988813;28;20046;-77
2024/01/16 01:19:17;;;;;;;8.55;8.15;;;-1.20;99.90;;;;;;5022739;28;20049;-76
2024/01/16 01:21:42;;;;;;;7.45;7.00;;;-1.20;99.90;;;;;;4988401;28;20564;-76
2024/01/16 01:24:09;;;;;;;7.93;7.53;;;-1.20;99.90;;;;;;5005557;28;20062;-78
2024/01/16 01:26:35;;;;;;;9.02;8.43;;;-1.30;99.90;;;;;;4973549;28;20129;-78
2024/01/16 01:29:01;;;;;;;9.32;8.40;;;-1.30;99.90;;;;;;5021561;28;20132;-77
2024/01/16 01:31:26;;;;;;;8.68;8.15;;;-1.20;99.90;;;;;;5015123;28;20041;-77
2024/01/16 01:33:52;;;;;;;8.38;7.97;;;-1.30;99.90;;;;;;5040726;28;20084;-76
2024/01/16 01:36:18;;;;;;;7.90;7.50;;;-1.30;99.90;;;;;;5025655;28;20525;-77
2024/01/16 01:38:44;;;;;;;8.45;7.85;;;-1.30;99.90;;;;;;5024341;28;20045;-77
2024/01/16 01:41:11;;;;;;;8.82;8.23;;;-1.40;99.90;;;;;;4992546;28;20628;-77
2024/01/16 01:43:37;;;;;;;9.18;8.63;;;-1.30;99.90;;;;;;5028280;28;20056;-78
2024/01/16 01:46:11;;;;;;;10.20;9.80;;;-1.30;99.90;;;;;;4988666;28;20037;-78
2024/01/16 01:48:42;;;;;;;9.73;9.10;;;-1.20;99.90;;;;;;5021602;28;20604;-78
2024/01/16 01:51:12;;;;;;;10.90;10.30;;;-1.10;99.90;;;;;;5003850;28;20053;-78
2024/01/16 01:53:39;;;;;;;10.85;10.45;;;-1.00;99.90;;;;;;5021983;28;20056;-77
2024/01/16 01:56:16;;;;;;;11.30;10.82;;;-0.20;99.90;;;;;;5020852;28;20038;-77
2024/01/16 01:58:45;;;;;;;10.40;9.90;;;-0.90;99.90;;;;;;5004663;28;20041;-77
2024/01/16 02:01:12;;;;;;;9.75;9.23;;;-0.80;99.90;;;;;;5021189;28;20076;-77
2024/01/16 02:03:45;;;;;;;8.68;8.10;;;-0.80;99.90;;;;;;5004096;28;20053;-76
2024/01/16 02:06:16;;;;;;;7.75;7.45;;;-0.90;99.90;;;;;;4989094;28;20046;-77
2024/01/16 02:08:42;;;;;;;8.23;7.82;;;-1.00;99.90;;;;;;5020242;28;20061;-76
2024/01/16 02:11:08;;;;;;;9.45;8.88;;;-1.00;99.90;;;;;;5005837;28;20053;-78
2024/01/16 02:13:34;;;;;;;8.98;8.23;;;-1.00;99.90;;;;;;5024041;28;20320;-77
2024/01/16 02:16:00;;;;;;;8.98;8.38;;;-1.10;99.90;;;;;;5035740;28;20504;-77
2024/01/16 02:18:27;;;;;;;8.75;8.25;;;-1.10;99.90;;;;;;5027838;28;20041;-76
2024/01/16 02:20:55;;;;;;;8.38;7.72;;;-1.20;99.90;;;;;;5026254;28;20052;-76
2024/01/16 02:23:26;;;;;;;9.00;8.50;;;-1.20;99.90;;;;;;5044402;28;20037;-77
2024/01/16 02:25:53;;;;;;;9.23;8.70;;;-1.30;99.90;;;;;;5026727;28;20041;-77
2024/01/16 02:28:19;;;;;;;10.35;9.80;;;-1.30;99.90;;;;;;5011224;28;20047;-77
2024/01/16 02:30:45;;;;;;;10.10;9.70;;;-1.30;99.90;;;;;;5023305;28;20045;-76
2024/01/16 02:33:10;;;;;;;9.95;9.32;;;-0.90;99.90;;;;;;5007295;28;20596;-78
2024/01/16 02:35:36;;;;;;;9.73;9.32;;;-1.30;99.90;;;;;;5042150;28;20053;-77
2024/01/16 02:38:02;;;;;;;10.30;9.80;;;-1.30;99.90;;;;;;5023142;28;20045;-78
2024/01/16 02:40:27;;;;;;;9.20;8.60;;;-1.30;99.90;;;;;;5024256;28;20067;-78
2024/01/16 02:42:53;;;;;;;10.35;9.32;;;-1.30;99.90;;;;;;5006205;28;20053;-76
2024/01/16 02:45:19;;;;;;;8.85;8.32;;;-1.30;99.90;;;;;;5007716;28;20045;-77
2024/01/16 02:47:45;;;;;;;9.70;9.30;;;-1.30;99.90;;;;;;4991007;28;20025;-75
2024/01/16 02:50:11;;;;;;;11.20;10.30;;;-1.30;99.90;;;;;;4990223;28;20103;-76
2024/01/16 02:52:36;;;;;;;11.40;10.90;;;-1.00;99.90;;;;;;5007446;28;20056;-76
2024/01/16 02:55:02;;;;;;;11.73;11.02;;;-0.50;99.90;;;;;;4974154;28;20105;-77
2024/01/16 02:57:28;;;;;;;12.25;11.68;;;-1.20;99.90;;;;;;4991617;28;20386;-76
2024/01/16 02:59:54;;;;;;;11.35;10.65;;;-1.10;99.90;;;;;;4974358;28;20068;-76
2024/01/16 03:02:19;;;;;;;11.38;10.60;;;-0.80;99.90;;;;;;4990891;28;20124;-76
2024/01/16 03:04:45;;;;;;;10.27;9.68;;;-1.10;99.90;;;;;;4990740;28;20045;-76
2024/01/16 03:07:10;;;;;;;9.43;8.90;;;-1.00;99.90;;;;;;5007062;28;20132;-76
2024/01/16 03:09:36;;;;;;;9.02;8.57;;;-1.10;99.90;;;;;;5023704;28;20049;-76
2024/01/16 03:12:02;;;;;;;9.10;8.55;;;-1.10;99.90;;;;;;5003515;28;20069;-77
2024/01/16 03:14:33;;;;;;;9.52;8.80;;;-1.20;99.90;;;;;;5006946;28;20046;-77
2024/01/16 03:17:02;;;;;;;9.63;9.23;;;-1.20;99.90;;;;;;5019269;28;20053;-78
2024/01/16 03:19:28;;;;;;;10.45;9.85;;;-1.30;99.90;;;;;;5004426;28;20064;-77
2024/01/16 03:21:53;;;;;;;9.60;8.82;;;-1.20;99.90;;;;;;5021747;28;20045;-76
2024/01/16 03:24:19;;;;;;;8.73;8.35;;;-1.20;99.90;;;;;;5023688;28;20049;-76
2024/01/16 03:26:45;;;;;;;9.60;9.10;;;-1.20;99.90;;;;;;5024295;28;20041;-76
2024/01/16 03:29:11;;;;;;;9.20;8.80;;;-0.50;99.90;;;;;;4990892;28;20447;-75
2024/01/16 03:31:37;;;;;;;8.70;8.30;;;-1.30;99.90;;;;;;4999235;28;20064;-75
2024/01/16 03:34:03;;;;;;;8.43;7.78;;;-1.40;99.90;;;;;;5006540;28;20042;-75
2024/01/16 03:36:29;;;;;;;8.85;8.18;;;-1.40;99.90;;;;;;4991646;28;20034;-75
2024/01/16 03:38:54;;;;;;;8.70;8.10;;;-1.50;99.90;;;;;;5006791;28;20155;-75
2024/01/16 03:41:20;;;;;;;8.20;7.80;;;-0.70;99.90;;;;;;4991262;28;20085;-75
2024/01/16 03:43:46;;;;;;;9.00;8.40;;;-1.50;99.90;;;;;;4991133;28;20077;-75
2024/01/16 03:46:11;;;;;;;9.32;8.90;;;-1.60;99.90;;;;;;5006820;28;20074;-75
2024/01/16 03:48:37;;;;;;;10.20;9.80;;;-1.10;99.90;;;;;;5023844;28;20057;-76
2024/01/16 03:51:03;;;;;;;10.45;9.85;;;-1.50;99.90;;;;;;4989956;28;20054;-76
2024/01/16 03:53:29;;;;;;;10.25;9.65;;;-1.50;99.90;;;;;;4991454;28;20048;-77
2024/01/16 03:55:55;;;;;;;9.70;9.10;;;-1.50;99.90;;;;;;5023180;28;20367;-76
2024/01/16 03:58:21;;;;;;;9.80;9.10;;;-1.50;99.90;;;;;;4990957;28;20081;-77
2024/01/16 04:00:47;;;;;;;10.32;9.55;;;-1.40;99.90;;;;;;5006803;28;20050;-78
2024/01/16 04:03:13;;;;;;;9.60;9.20;;;-1.40;99.90;;;;;;4990259;28;20077;-77
2024/01/16 04:05:39;;;;;;;10.32;9.30;;;-1.40;99.90;;;;;;5007412;28;20041;-78
2024/01/16 04:08:04;;;;;;;10.07;9.63;;;-1.30;99.90;;;;;;5006186;28;20048;-78
2024/01/16 04:10:30;;;;;;;9.85;9.15;;;-1.30;99.90;;;;;;5007601;28;20069;-78
2024/01/16 04:12:59;;;;;;;9.80;9.30;;;-1.10;99.90;;;;;;5022223;28;20089;-78
2024/01/16 04:15:25;;;;;;;10.70;9.88;;;-0.80;99.90;;;;;;5013853;28;20048;-78
2024/01/16 04:17:51;;;;;;;8.93;8.50;;;-1.20;99.90;;;;;;5026308;28;20105;-77
2024/01/16 04:20:16;;;;;;;9.65;9.15;;;-1.20;99.90;;;;;;5009630;28;20064;-78
2024/01/16 04:22:42;;;;;;;10.65;9.88;;;-0.90;99.90;;;;;;5042850;28;20056;-78
2024/01/16 04:25:08;;;;;;;9.75;9.25;;;-0.80;99.90;;;;;;5009559;28;20069;-78
2024/01/16 04:27:33;;;;;;;10.23;9.38;;;-1.10;99.90;;;;;;5010515;28;20613;-78
2024/01/16 04:29:59;;;;;;;10.30;9.40;;;-1.10;99.90;;;;;;5009091;28;20052;-78
2024/01/16 04:32:25;;;;;;;9.73;8.70;;;-1.10;99.90;;;;;;5008143;28;20038;-79
2024/01/16 04:34:50;;;;;;;9.93;9.32;;;-1.10;99.90;;;;;;5006285;28;20045;-79
2024/01/16 04:37:16;;;;;;;9.55;9.15;;;-1.10;99.90;;;;;;5022182;28;20052;-79
2024/01/16 04:39:42;;;;;;;8.63;8.02;;;-1.10;99.90;;;;;;5023014;28;20129;-79
2024/01/16 04:42:08;;;;;;;9.15;8.65;;;-1.10;99.90;;;;;;5021789;28;20054;-78
2024/01/16 04:44:33;;;;;;;10.10;9.20;;;-1.00;99.90;;;;;;5006747;28;20041;-78
2024/01/16 04:46:59;;;;;;;9.73;8.85;;;-0.60;99.90;;;;;;5021469;28;20069;-76
2024/01/16 04:49:25;;;;;;;8.75;8.35;;;-1.10;99.90;;;;;;5024477;28;20042;-78
2024/01/16 04:51:51;;;;;;;10.07;9.48;;;-1.20;99.90;;;;;;4973368;28;20045;-76
2024/01/16 04:54:16;;;;;;;9.40;8.88;;;-1.10;99.90;;;;;;4989707;28;20057;-79
2024/01/16 04:56:42;;;;;;;9.77;9.02;;;-1.10;99.90;;;;;;4996127;28;20030;-79
2024/01/16 04:59:08;;;;;;;10.48;9.77;;;-1.10;99.90;;;;;;5041566;28;20046;-80
2024/01/16 05:01:33;;;;;;;8.95;8.50;;;-0.90;99.90;;;;;;5042348;28;20045;-79
2024/01/16 05:03:59;;;;;;;9.25;8.65;;;-1.10;99.90;;;;;;5008430;28;20053;-77
2024/01/16 05:06:24;;;;;;;9.52;9.07;;;-1.10;99.90;;;;;;5042730;28;20045;-78
2024/01/16 05:08:50;;;;;;;9.10;8.40;;;-1.10;99.90;;;;;;5041669;28;20784;-78
2024/01/16 05:11:16;;;;;;;9.35;8.73;;;0.50;99.90;;;;;;5027981;28;20053;-78
2024/01/16 05:13:42;;;;;;;9.50;9.00;;;-1.10;99.90;;;;;;5034329;28;20076;-78
2024/01/16 05:16:08;;;;;;;9.73;9.13;;;-1.00;99.90;;;;;;5008307;28;20046;-77
2024/01/16 05:18:33;;;;;;;8.98;8.40;;;-1.00;99.90;;;;;;4993259;28;20148;-79
2024/01/16 05:20:59;;;;;;;10.20;9.27;;;-1.00;99.90;;;;;;4991382;28;20049;-77
2024/01/16 05:23:25;;;;;;;8.40;7.93;;;-0.60;99.90;;;;;;5025837;28;20447;-78
2024/01/16 05:25:51;;;;;;;10.25;9.57;;;-1.00;99.90;;;;;;5007941;28;20133;-77
2024/01/16 05:28:16;;;;;;;8.27;7.90;;;-0.40;99.90;;;;;;5025592;28;20132;-77
2024/01/16 05:30:42;;;;;;;8.63;8.18;;;-0.90;99.90;;;;;;4976071;28;20103;-78
2024/01/16 05:33:08;;;;;;;8.77;8.18;;;-1.10;99.90;;;;;;5008507;28;20052;-78
2024/01/16 05:35:34;;;;;;;8.63;8.23;;;-1.00;99.90;;;;;;5025470;28;20053;-77
2024/01/16 05:38:00;;;;;;;8.93;8.30;;;-1.00;99.90;;;;;;5023977;28;20511;-77
2024/01/16 05:40:26;;;;;;;8.32;7.95;;;-1.00;99.90;;;;;;5025509;28;20057;-77
2024/01/16 05:42:51;;;;;;;10.23;9.00;;;-1.00;99.90;;;;;;5023671;28;20037;-78
2024/01/16 05:45:18;;;;;;;10.07;9.43;;;-1.00;99.90;;;;;;5025213;28;20099;-77
2024/01/16 05:47:44;;;;;;;9.05;8.48;;;-0.50;99.90;;;;;;5008185;28;20067;-78
2024/01/16 05:50:10;;;;;;;9.55;8.75;;;-1.00;99.90;;;;;;5041837;28;20053;-77
2024/01/16 05:52:36;;;;;;;10.10;8.95;;;-0.60;99.90;;;;;;5025005;28;20624;-77
2024/01/16 05:55:04;;;;;;;9.07;8.38;;;-1.00;99.90;;;;;;5007137;28;20043;-78
2024/01/16 05:57:33;;;;;;;10.10;9.48;;;-1.00;99.90;;;;;;5024957;28;20057;-78
2024/01/16 06:00:01;;;;;;;10.40;9.45;;;-0.30;99.90;;;;;;5007670;28;20044;-78
2024/01/16 06:02:27;;;;;;;8.98;8.38;;;-0.40;99.90;;;;;;5008151;28;20042;-77
2024/01/16 06:04:53;;;;;;;9.20;8.65;;;-1.00;99.90;;;;;;5008033;28;20045;-77
2024/01/16 06:07:18;;;;;;;8.95;8.45;;;-1.00;99.90;;;;;;4991471;28;20088;-79
2024/01/16 06:09:44;;;;;;;8.80;8.35;;;-1.00;99.90;;;;;;5024462;28;20045;-77
2024/01/16 06:12:12;;;;;;;9.68;8.82;;;-1.00;99.90;;;;;;5007273;28;20054;-77
2024/01/16 06:14:37;;;;;;;9.00;8.43;;;-1.00;99.90;;;;;;5026143;28;20057;-78
2024/01/16 06:17:08;;;;;;;9.63;8.93;;;-1.00;99.90;;;;;;5023195;28;20037;-78
2024/01/16 06:19:33;;;;;;;9.18;8.55;;;-1.00;99.90;;;;;;5024726;28;20057;-78
2024/01/16 06:21:59;;;;;;;9.43;8.73;;;-1.00;99.90;;;;;;5007046;28;20429;-78
2024/01/16 06:24:25;;;;;;;9.43;8.93;;;-1.00;99.90;;;;;;4991660;28;20041;-76
2024/01/16 06:26:51;;;;;;;9.50;8.90;;;-1.00;99.90;;;;;;5024247;28;20128;-77
2024/01/16 06:29:17;;;;;;;8.95;8.20;;;-0.90;99.90;;;;;;5006613;28;20103;-77
2024/01/16 06:31:42;;;;;;;8.77;8.35;;;-0.90;99.90;;;;;;5036218;28;20044;-78
2024/01/16 06:34:08;;;;;;;9.38;8.82;;;-0.90;99.90;;;;;;5010177;28;20558;-79
2024/01/16 06:36:34;;;;;;;9.85;9.15;;;-0.80;99.90;;;;;;5044159;28;20080;-78
2024/01/16 06:39:00;;;;;;;9.25;8.85;;;-0.30;99.90;;;;;;5026867;28;20433;-78
2024/01/16 06:41:26;;;;;;;9.45;8.70;;;-0.30;99.90;;;;;;5026906;28;20496;-77
2024/01/16 06:43:51;;;;;;;9.77;9.02;;;-0.90;99.90;;;;;;5043588;28;20173;-77
2024/01/16 06:46:17;;;;;;;10.75;10.15;;;-0.90;99.90;;;;;;5026500;28;20055;-77
2024/01/16 06:48:43;;;;;;;9.85;9.25;;;-0.90;99.90;;;;;;5043952;28;20045;-79
2024/01/16 06:51:10;;;;;;;9.75;9.00;;;-0.90;99.90;;;;;;5042281;28;20037;-79
2024/01/16 06:53:36;;;;;;;9.80;9.18;;;-0.40;99.90;;;;;;5027664;28;20052;-79
2024/01/16 06:56:03;;;;;;;10.27;9.57;;;-1.00;99.90;;;;;;5025992;28;20041;-78
2024/01/16 06:58:28;;;;;;;10.50;9.82;;;-1.00;99.90;;;;;;5026772;28;20124;-79
2024/01/16 07:00:55;;;;;;;9.63;9.13;;;-0.90;99.90;;;;;;5026979;28;20079;-79
2024/01/16 07:03:21;;;;;;;10.10;9.50;;;-0.90;99.90;;;;;;5009824;28;20051;-80
2024/01/16 07:05:46;;;;;;;10.50;9.82;;;-0.90;99.90;;;;;;5027129;28;20041;-79
2024/01/16 07:08:12;;;;;;;10.82;10.18;;;-0.90;99.90;;;;;;5026070;28;20094;-77
2024/01/16 07:10:38;;;;;;;11.05;10.30;;;0.50;99.90;;;;;;5043980;28;20045;-80
2024/01/16 07:13:03;;;;;;;10.50;10.00;;;-0.80;99.90;;;;;;5036387;28;20053;-77
2024/01/16 07:15:29;;;;;;;9.93;9.40;;;-0.80;99.90;;;;;;5006933;28;20048;-79
2024/01/16 07:17:55;;;;;;;11.50;10.70;;;-0.80;99.90;;;;;;5006910;28;20049;-78
2024/01/16 07:20:20;;;;;;;10.40;9.80;;;-2.30;99.90;;;;;;4990206;28;20045;-79
2024/01/16 07:22:46;;;;;;;9.98;9.48;;;-0.80;99.90;;;;;;5023260;28;20531;-79
2024/01/16 07:25:12;;;;;;;10.55;10.05;;;-0.70;99.90;;;;;;5005813;28;20049;-79
2024/01/16 07:27:38;;;;;;;10.93;10.13;;;-0.90;99.90;;;;;;5007441;28;20049;-80
2024/01/16 07:30:07;;;;;;;10.60;9.55;;;-0.90;99.90;;;;;;5022648;28;20406;-79
2024/01/16 07:32:33;;;;;;;9.90;9.40;;;-0.90;99.90;;;;;;5041890;28;20044;-79
2024/01/16 07:34:59;;;;;;;10.63;10.02;;;-0.30;99.90;;;;;;5031130;28;20145;-77
2024/01/16 07:37:25;;;;;;;10.40;9.60;;;-0.20;99.90;;;;;;5022694;28;20512;-77
2024/01/16 07:39:51;;;;;;;11.15;10.40;;;-1.20;99.90;;;;;;4990211;28;20064;-78
2024/01/16 07:42:16;;;;;;;11.40;10.68;;;-0.80;99.90;;;;;;5022256;28;20097;-79
2024/01/16 07:44:42;;;;;;;10.75;10.05;;;-0.90;99.90;;;;;;5007413;28;20055;-80
2024/01/16 07:47:08;;;;;;;11.55;10.85;;;-0.90;99.90;;;;;;5005237;28;20080;-78
2024/01/16 07:49:34;;;;;;;11.07;10.10;;;-0.90;99.90;;;;;;5022285;28;20479;-79
2024/01/16 07:52:00;;;;;;;11.02;10.15;;;-0.90;99.90;;;;;;5021648;28;20084;-78
2024/01/16 07:54:26;;;;;;;11.48;10.63;;;-0.30;99.90;;;;;;5006099;28;20420;-77
2024/01/16 07:56:52;;;;;;;10.57;9.85;;;-0.90;99.90;;;;;;5006648;28;20056;-77
2024/01/16 07:59:17;;;;;;;11.38;10.68;;;-0.90;99.90;;;;;;5005948;28;20112;-79
2024/01/16 08:01:43;;;;;;;12.13;11.30;;;-0.90;99.90;;;;;;5023188;28;20068;-79
2024/01/16 08:04:09;;;;;;;12.18;11.18;;;0.60;99.90;;;;;;5005325;28;20037;-78
2024/01/16 08:06:35;;;;;;;11.43;10.75;;;-0.80;99.90;;;;;;5025958;28;20041;-78
2024/01/16 08:09:01;;;;;;;12.48;11.57;;;-0.90;99.90;;;;;;5044575;28;20127;-81
2024/01/16 08:11:27;;;;;;;11.95;11.25;;;-0.90;99.90;;;;;;5029212;28;20060;-77
2024/01/16 08:13:53;;;;;;;11.95;11.25;;;-0.90;99.90;;;;;;5030704;28;20058;-79
2024/01/16 08:16:18;;;;;;;11.27;10.68;;;-0.40;99.90;;;;;;5036388;28;20037;-79
2024/01/16 08:18:44;;;;;;;12.40;11.60;;;-0.90;99.90;;;;;;5013591;28;20476;-79
2024/01/16 08:21:10;;;;;;;12.85;11.68;;;-0.90;99.90;;;;;;5021699;28;20052;-79
2024/01/16 08:23:35;;;;;;;11.73;11.02;;;-0.90;99.90;;;;;;5019734;28;20084;-79
2024/01/16 08:26:01;;;;;;;12.50;11.48;;;-0.90;99.90;;;;;;4988858;28;20042;-77
2024/01/16 08:28:27;;;;;;;11.57;10.38;;;-0.90;99.90;;;;;;5009152;28;20068;-77
2024/01/16 08:30:53;;;;;;;12.00;11.15;;;-0.80;99.90;;;;;;5019895;28;20124;-77
2024/01/16 08:33:19;;;;;;;11.82;10.95;;;-0.70;99.90;;;;;;5021694;28;20074;-76
2024/01/16 08:35:45;;;;;;;14.18;13.27;;;-0.70;99.90;;;;;;5005702;28;20129;-77
2024/01/16 08:38:10;;;;;;;14.80;13.80;;;-0.60;99.90;;;;;;4988404;28;20124;-77
2024/01/16 08:40:36;;;;;;;13.90;13.00;;;-0.60;99.90;;;;;;4997315;28;20077;-77
2024/01/16 08:43:03;;;;;;;12.85;11.98;;;-0.20;99.90;;;;;;5004168;28;20057;-77
2024/01/16 08:45:29;;;;;;;14.82;13.52;;;-0.50;99.90;;;;;;4989269;28;20124;-77
2024/01/16 08:47:55;;;;;;;12.98;12.18;;;-0.40;99.90;;;;;;5025807;28;20065;-78
2024/01/16 08:50:21;;;;;;;13.77;12.77;;;-0.40;99.90;;;;;;4997704;28;20069;-77
2024/01/16 08:52:46;;;;;;;13.45;12.45;;;-0.30;99.90;;;;;;5030863;28;20477;-77
2024/01/16 08:55:12;;;;;;;14.10;13.13;;;-0.30;99.90;;;;;;4995122;28;20046;-77
2024/01/16 08:57:38;;;;;;;13.23;12.32;;;0.00;99.90;;;;;;4989308;28;20092;-78
2024/01/16 09:00:05;;;;;;;13.90;13.10;;;-0.10;99.90;;;;;;4988129;28;20096;-77
2024/01/16 09:02:31;;;;;;;13.70;12.70;;;-0.20;99.90;;;;;;5004894;28;20572;-77
2024/01/16 09:04:58;;;;;;;14.15;13.25;;;-0.10;99.90;;;;;;4981955;28;20050;-79
2024/01/16 09:07:25;;;;;;;13.98;12.90;;;-0.10;99.90;;;;;;5005042;28;20046;-79
2024/01/16 09:09:50;;;;;;;14.40;13.30;;;0.40;99.90;;;;;;5005341;28;20038;-76
2024/01/16 09:12:16;;;;;;;13.75;12.73;;;0.00;99.90;;;;;;5022518;28;20125;-79
2024/01/16 09:14:42;;;;;;;14.30;13.40;;;-0.10;99.90;;;;;;5000298;28;20054;-79
2024/01/16 09:17:08;;;;;;;15.55;14.48;;;-0.10;99.90;;;;;;4997423;28;20037;-78
2024/01/16 09:19:33;;;;;;;14.73;13.70;;;-0.10;99.90;;;;;;5024063;28;20103;-78
2024/01/16 09:21:59;;;;;;;15.18;14.18;;;-0.10;99.90;;;;;;5007593;28;20049;-79
2024/01/16 09:24:25;;;;;;;13.77;12.95;;;0.00;99.90;;;;;;5033405;28;20055;-77
2024/01/16 09:26:50;;;;;;;16.73;15.57;;;0.00;99.90;;;;;;5011181;28;20056;-76
2024/01/16 09:29:16;;;;;;;16.13;15.13;;;0.20;99.90;;;;;;4990033;28;20597;-78
2024/01/16 09:31:42;;;;;;;13.80;12.98;;;0.20;99.90;;;;;;4984302;28;20105;-77
2024/01/16 09:34:08;;;;;;;13.52;12.80;;;0.10;99.90;;;;;;4993576;28;20097;-78
2024/01/16 09:36:37;;;;;;;15.13;14.20;;;0.10;99.90;;;;;;5023870;28;20075;-76
2024/01/16 09:39:07;;;;;;;15.20;14.35;;;0.10;99.90;;;;;;5012283;28;20041;-80
2024/01/16 09:41:36;;;;;;;15.73;14.73;;;0.20;99.90;;;;;;5025517;28;20044;-78
2024/01/16 09:44:03;;;;;;;15.70;14.63;;;0.20;99.90;;;;;;5006007;28;20041;-79
2024/01/16 09:46:31;;;;;;;16.25;14.90;;;0.20;99.90;;;;;;4990338;28;20048;-77
2024/01/16 09:48:59;;;;;;;15.75;14.65;;;0.30;99.90;;;;;;5007790;28;20041;-79
2024/01/16 09:51:25;;;;;;;16.65;15.45;;;0.70;99.90;;;;;;5039591;28;20049;-78
2024/01/16 09:53:52;;;;;;;13.43;12.73;;;0.30;99.90;;;;;;4993562;28;20048;-77
2024/01/16 09:56:22;;;;;;;14.50;13.70;;;0.30;99.90;;;;;;5042663;28;20456;-79
2024/01/16 09:58:49;;;;;;;15.68;14.60;;;0.40;99.90;;;;;;5025909;28;20107;-79
2024/01/16 10:01:16;;;;;;;16.75;15.73;;;0.40;99.90;;;;;;5026891;28;20041;-79
2024/01/16 10:03:45;;;;;;;15.27;14.40;;;0.30;99.90;;;;;;5025722;28;20052;-77
2024/01/16 10:06:13;;;;;;;17.60;16.60;;;0.30;99.90;;;;;;5025148;28;20045;-78
2024/01/16 10:08:40;;;;;;;17.63;16.52;;;0.30;99.90;;;;;;5025011;28;20122;-76
2024/01/16 10:11:06;;;;;;;17.13;16.23;;;0.40;99.90;;;;;;5007454;28;20052;-79
2024/01/16 10:13:33;;;;;;;16.83;15.68;;;0.40;99.90;;;;;;4993328;28;20058;-76
2024/01/16 10:15:59;;;;;;;16.08;15.18;;;0.40;99.90;;;;;;5015066;28;20073;-80
2024/01/16 10:18:27;;;;;;;16.90;15.88;;;0.50;99.90;;;;;;4987237;28;20564;-78
2024/01/16 10:20:54;;;;;;;17.90;16.75;;;0.40;99.90;;;;;;5018579;28;20088;-76
2024/01/16 10:23:24;;;;;;;19.52;18.23;;;0.50;99.90;;;;;;5020821;28;20050;-76
2024/01/16 10:26:09;;;;;;;18.05;16.75;;;0.40;99.90;;;;;;5002705;28;20557;-78
2024/01/16 10:28:36;;;;;;;16.67;15.63;;;0.30;99.90;;;;;;5003602;28;20080;-77
2024/01/16 10:31:04;;;;;;;16.30;15.40;;;0.40;99.90;;;;;;5032815;28;20041;-80
2024/01/16 10:33:29;;;;;;;18.10;17.10;;;0.40;99.90;;;;;;4986917;28;20371;-79
2024/01/16 10:36:22;;;;;;;18.90;17.25;;;0.40;99.90;;;;;;5020168;28;20188;-79
2024/01/16 10:38:47;;;;;;;17.50;16.40;;;0.40;99.90;;;;;;4987854;28;20438;-79
2024/01/16 10:41:17;;;;;;;20.05;18.50;;;0.40;99.90;;;;;;4991605;28;20059;-79
2024/01/16 10:43:44;;;;;;;18.25;17.25;;;0.40;99.90;;;;;;5022665;28;20049;-79
2024/01/16 10:46:17;;;;;;;17.92;17.02;;;0.40;99.90;;;;;;5006436;28;20046;-79
2024/01/16 10:49:04;;;;;;;16.10;15.18;;;0.40;99.90;;;;;;5007028;28;20093;-77
2024/01/16 10:51:31;;;;;;;17.33;16.42;;;0.40;99.90;;;;;;5005596;28;20042;-76
2024/01/16 10:54:08;;;;;;;17.42;16.35;;;0.50;99.90;;;;;;5021516;28;20101;-79
2024/01/16 10:56:34;;;;;;;16.52;15.70;;;0.50;99.90;;;;;;5006956;28;20073;-78
2024/01/16 10:59:18;;;;;;;15.65;14.52;;;0.60;99.90;;;;;;5022452;28;20048;-78
2024/01/16 11:01:56;;;;;;;16.17;15.18;;;0.60;99.90;;;;;;5023163;28;20072;-79
2024/01/16 11:04:22;;;;;;;17.73;16.50;;;0.60;99.90;;;;;;5021702;28;20048;-76
2024/01/16 11:06:51;;;;;;;18.65;17.45;;;0.60;99.90;;;;;;5005325;28;20053;-77
2024/01/16 11:09:17;;;;;;;15.98;15.15;;;0.70;99.90;;;;;;5022413;28;20037;-77
2024/01/16 11:11:45;;;;;;;16.13;15.13;;;0.60;99.90;;;;;;5005650;28;20052;-78
2024/01/16 11:14:13;;;;;;;15.43;14.73;;;0.60;99.90;;;;;;5008155;28;20057;-77
2024/01/16 11:16:40;;;;;;;13.95;13.32;;;0.60;99.90;;;;;;5018400;28;20049;-77
2024/01/16 11:19:08;;;;;;;14.23;13.55;;;0.60;99.90;;;;;;4980902;28;20050;-78
2024/01/16 11:21:39;;;;;;;12.98;12.18;;;0.60;99.90;;;;;;5018548;28;20048;-79
2024/01/16 11:24:05;;;;;;;13.75;12.90;;;0.60;99.90;;;;;;5003648;28;20054;-78
2024/01/16 11:26:33;;;;;;;11.65;11.05;;;0.60;99.90;;;;;;5002529;28;20038;-77
2024/01/16 11:28:59;;;;;;;11.15;10.55;;;0.60;99.90;;;;;;5018164;28;20045;-77
2024/01/16 11:31:33;;;;;;;11.27;10.43;;;0.50;99.90;;;;;;5012311;28;20073;-77
2024/01/16 11:34:00;;;;;;;11.57;10.90;;;0.60;99.90;;;;;;4985474;28;20057;-76
2024/01/16 11:36:53;;;;;;;11.07;10.38;;;0.50;99.90;;;;;;4987437;28;20057;-76
2024/01/16 11:39:26;;;;;;;10.70;10.10;;;0.60;99.90;;;;;;5018279;28;20080;-76
2024/01/16 11:41:59;;;;;;;11.43;10.73;;;0.60;99.90;;;;;;4990164;28;20042;-78
2024/01/16 11:44:46;;;;;;;11.25;10.57;;;0.60;99.90;;;;;;5026913;28;20049;-76
2024/01/16 11:47:19;;;;;;;10.70;10.20;;;0.60;99.90;;;;;;5042151;28;20060;-77
2024/01/16 11:49:50;;;;;;;10.50;9.90;;;0.60;99.90;;;;;;5025356;28;20124;-76
2024/01/16 11:52:42;;;;;;;11.02;10.20;;;0.60;99.90;;;;;;5026245;28;20135;-77
2024/01/16 11:55:27;;;;;;;10.60;10.10;;;0.70;99.90;;;;;;5023911;28;20101;-78
2024/01/16 11:58:15;;;;;;;10.32;9.82;;;0.60;99.90;;;;;;5026779;28;20045;-77
2024/01/16 12:00:44;;;;;;;12.18;11.48;;;0.60;99.90;;;;;;5025077;28;20079;-78
2024/01/16 12:03:13;;;;;;;12.30;11.63;;;0.60;99.90;;;;;;5008978;28;20057;-79
2024/01/16 12:05:38;;;;;;;12.20;11.60;;;0.60;99.90;;;;;;5025712;28;20088;-76
2024/01/16 12:08:06;;;;;;;13.00;12.27;;;0.60;99.90;;;;;;4989461;28;20046;-77
2024/01/16 12:10:32;;;;;;;13.10;12.57;;;0.60;99.90;;;;;;5022487;28;20042;-76
2024/01/16 12:13:02;;;;;;;14.07;13.35;;;0.60;99.90;;;;;;5010534;28;20057;-76
2024/01/16 12:15:27;;;;;;;14.57;13.80;;;0.60;99.90;;;;;;5006424;28;20392;-77
2024/01/16 12:18:01;;;;;;;14.38;13.57;;;0.60;99.90;;;;;;5006635;28;20109;-76
2024/01/16 12:20:30;;;;;;;15.25;14.20;;;0.60;99.90;;;;;;5005790;28;20046;-77
2024/01/16 12:23:03;;;;;;;14.80;13.90;;;0.60;99.90;;;;;;5022444;28;20057;-78
2024/01/16 12:25:34;;;;;;;13.73;12.95;;;0.50;99.90;;;;;;5005133;28;20053;-76
2024/01/16 12:28:01;;;;;;;16.15;15.25;;;0.50;99.90;;;;;;5006603;28;20130;-76
2024/01/16 12:30:29;;;;;;;15.45;14.35;;;0.50;99.90;;;;;;5008540;28;20049;-77
2024/01/16 12:33:12;;;;;;;13.77;12.88;;;0.40;99.90;;;;;;5004870;28;20069;-77
2024/01/16 12:35:44;;;;;;;17.25;16.08;;;0.70;99.90;;;;;;5006480;28;20037;-76
2024/01/16 12:38:12;;;;;;;15.18;14.15;;;0.50;99.90;;;;;;5005068;28;20069;-75